Time;durP1;ratioP1;P1;durP2;ratioP2;P2;SDS_P1;SDS_P2;PMS_P1;PMS_P2;Temp;Humidity;BMP_temperature;BMP_pressure;BME280_temperature;BME280_humidity;BME280_pressure;Samples;Min_cycle;Max_cycle;Signal;HPM_P1;HPM_P2
2022/08/08 00:01:15;;;;;;;2.78;0.47;;;;;;;;;;4841079;29;20414;-48
2022/08/08 00:03:57;;;;;;;1.13;0.50;;;;;;;;;;4841122;29;20109;-46
2022/08/08 00:06:49;;;;;;;2.05;0.47;;;;;;;;;;4841166;29;20054;-48
2022/08/08 00:09:21;;;;;;;3.25;0.90;;;;;;;;;;4841024;29;20402;-48
2022/08/08 00:12:00;;;;;;;3.70;0.80;;;;;;;;;;4840964;29;20064;-45
2022/08/08 00:15:10;;;;;;;1.75;0.40;;;;;;;;;;4841092;29;20050;-48
2022/08/08 00:17:53;;;;;;;0.38;0.38;;;;;;;;;;4841147;29;20144;-48
2022/08/08 00:20:49;;;;;;;1.25;0.52;;;;;;;;;;4841008;29;20060;-47
2022/08/08 00:23:37;;;;;;;1.13;0.50;;;;;;;;;;4840818;29;20062;-49
2022/08/08 00:26:23;;;;;;;4.50;0.77;;;;;;;;;;4841519;29;20125;-47
2022/08/08 00:29:41;;;;;;;2.88;0.88;;;;;;;;;;4844614;29;20075;-49
2022/08/08 00:32:18;;;;;;;3.38;0.60;;;;;;;;;;4844001;29;20057;-46
2022/08/08 00:35:31;;;;;;;5.03;0.68;;;;;;;;;;4844300;29;20049;-47
2022/08/08 00:38:31;;;;;;;4.05;0.85;;;;;;;;;;4844606;29;20049;-48
2022/08/08 00:41:54;;;;;;;2.22;0.70;;;;;;;;;;4827752;29;20053;-47
2022/08/08 00:45:13;;;;;;;3.35;0.68;;;;;;;;;;4844434;29;20050;-45
2022/08/08 00:48:18;;;;;;;1.55;0.70;;;;;;;;;;4844490;29;20042;-47
2022/08/08 00:51:26;;;;;;;2.35;0.43;;;;;;;;;;4821552;29;20059;-47
2022/08/08 00:54:19;;;;;;;3.83;0.55;;;;;;;;;;4803405;29;20061;-45
2022/08/08 00:57:24;;;;;;;4.22;0.80;;;;;;;;;;4821382;29;20527;-46
2022/08/08 01:00:11;;;;;;;4.68;1.02;;;;;;;;;;4821198;29;20082;-46
2022/08/08 01:03:04;;;;;;;0.43;0.40;;;;;;;;;;4809874;29;21748;-45
2022/08/08 01:06:16;;;;;;;2.15;0.80;;;;;;;;;;4824199;29;20457;-43
2022/08/08 01:09:28;;;;;;;2.65;0.68;;;;;;;;;;4824227;29;20070;-47
2022/08/08 01:12:40;;;;;;;2.20;0.57;;;;;;;;;;4824917;29;20058;-47
2022/08/08 01:15:46;;;;;;;4.13;0.80;;;;;;;;;;4824157;29;20107;-45
2022/08/08 01:18:48;;;;;;;1.70;0.55;;;;;;;;;;4824035;29;20358;-47
2022/08/08 01:21:39;;;;;;;1.27;0.70;;;;;;;;;;4824166;29;20050;-46
2022/08/08 01:24:54;;;;;;;2.08;0.80;;;;;;;;;;4824229;29;20047;-48
2022/08/08 01:27:42;;;;;;;;;;;;;;;;;;4824461;29;20050;-49
2022/08/08 01:30:33;;;;;;;3.35;0.80;;;;;;;;;;4823820;29;19924;-48
2022/08/08 01:33:35;;;;;;;3.53;0.77;;;;;;;;;;4823862;29;20038;-46
2022/08/08 01:36:39;;;;;;;3.42;1.15;;;;;;;;;;4823679;29;20495;-50
2022/08/08 01:39:12;;;;;;;;;;;;;;;;;;4824071;29;20081;-47
2022/08/08 01:42:18;;;;;;;0.90;0.50;;;;;;;;;;4823695;29;19951;-51
2022/08/08 01:45:24;;;;;;;3.90;0.65;;;;;;;;;;4823818;29;20042;-48
2022/08/08 01:48:29;;;;;;;5.68;0.70;;;;;;;;;;4789866;29;20053;-47
2022/08/08 01:51:26;;;;;;;0.52;0.47;;;;;;;;;;4842012;29;20105;-47
2022/08/08 01:54:33;;;;;;;1.58;0.50;;;;;;;;;;4826174;29;20046;-45
2022/08/08 01:57:23;;;;;;;0.75;0.50;;;;;;;;;;4843103;29;20074;-48
2022/08/08 02:00:15;;;;;;;2.28;0.95;;;;;;;;;;4841988;29;20103;-47
2022/08/08 02:03:05;;;;;;;2.15;0.68;;;;;;;;;;4842896;29;20518;-47
2022/08/08 02:06:15;;;;;;;3.97;0.55;;;;;;;;;;4841679;29;20129;-46
2022/08/08 02:09:28;;;;;;;3.50;0.77;;;;;;;;;;4825950;29;20150;-45
2022/08/08 02:12:34;;;;;;;4.00;1.20;;;;;;;;;;4823172;29;20110;-49
2022/08/08 02:15:17;;;;;;;2.67;0.98;;;;;;;;;;4822932;29;20058;-49
2022/08/08 02:17:58;;;;;;;2.33;1.27;;;;;;;;;;4823239;29;20145;-49
2022/08/08 02:20:32;;;;;;;1.67;0.73;;;;;;;;;;4823310;29;20047;-47
2022/08/08 02:23:32;;;;;;;3.45;0.73;;;;;;;;;;4807567;29;20062;-49
2022/08/08 02:26:32;;;;;;;1.23;0.55;;;;;;;;;;4822962;29;20103;-45
2022/08/08 02:29:15;;;;;;;1.45;0.77;;;;;;;;;;4824327;29;20078;-44
2022/08/08 02:32:25;;;;;;;1.48;0.82;;;;;;;;;;4807580;29;20062;-45
2022/08/08 02:35:02;;;;;;;3.08;1.00;;;;;;;;;;4822784;29;20071;-45
2022/08/08 02:38:02;;;;;;;2.85;0.60;;;;;;;;;;4822925;29;20050;-44
2022/08/08 02:41:22;;;;;;;5.43;0.70;;;;;;;;;;4824109;29;20515;-52
2022/08/08 02:44:38;;;;;;;2.38;0.70;;;;;;;;;;4806149;29;20107;-47
2022/08/08 02:48:09;;;;;;;0.60;0.50;;;;;;;;;;4823011;29;20058;-45
2022/08/08 02:51:15;;;;;;;1.02;0.60;;;;;;;;;;4783819;29;20133;-46
2022/08/08 02:54:29;;;;;;;0.90;0.70;;;;;;;;;;4822386;29;20043;-44
2022/08/08 02:57:41;;;;;;;0.85;0.82;;;;;;;;;;4822833;29;20054;-41
2022/08/08 03:00:47;;;;;;;4.18;1.00;;;;;;;;;;4822430;29;20225;-44
2022/08/08 03:04:03;;;;;;;0.82;0.57;;;;;;;;;;4822425;29;20506;-45
2022/08/08 03:07:02;;;;;;;3.22;0.77;;;;;;;;;;4823661;29;20049;-44
2022/08/08 03:10:11;;;;;;;4.43;0.70;;;;;;;;;;4822265;29;20054;-44
2022/08/08 03:13:23;;;;;;;1.15;0.70;;;;;;;;;;4822768;29;20046;-46
2022/08/08 03:16:32;;;;;;;3.08;0.90;;;;;;;;;;4822126;29;20058;-46
2022/08/08 03:19:37;;;;;;;3.60;0.70;;;;;;;;;;4822364;29;20049;-45
2022/08/08 03:22:05;;;;;;;2.80;0.98;;;;;;;;;;4823489;29;20042;-44
2022/08/08 03:24:55;;;;;;;1.30;0.80;;;;;;;;;;4822307;29;20052;-45
2022/08/08 03:27:42;;;;;;;8.75;0.98;;;;;;;;;;4821486;29;20069;-46
2022/08/08 03:30:12;;;;;;;2.95;0.80;;;;;;;;;;4823208;29;20100;-45
2022/08/08 03:35:58;;;;;;;1.15;0.85;;;;;;;;;;4806965;29;20519;-45
2022/08/08 03:38:29;;;;;;;1.65;0.80;;;;;;;;;;4823358;29;20091;-45
2022/08/08 03:41:17;;;;;;;5.78;0.82;;;;;;;;;;4822096;29;20039;-43
2022/08/08 03:44:05;;;;;;;1.95;0.65;;;;;;;;;;4821850;29;20129;-45
2022/08/08 03:46:45;;;;;;;2.03;0.90;;;;;;;;;;4806463;29;20057;-46
2022/08/08 03:49:24;;;;;;;2.58;0.90;;;;;;;;;;4832405;29;20534;-46
2022/08/08 03:52:11;;;;;;;2.88;1.20;;;;;;;;;;4840848;29;20506;-48
2022/08/08 03:54:43;;;;;;;4.38;2.65;;;;;;;;;;4839897;29;20133;-44
2022/08/08 03:57:31;;;;;;;3.35;1.80;;;;;;;;;;4841136;29;20045;-49
2022/08/08 04:00:23;;;;;;;2.90;1.70;;;;;;;;;;4839734;29;20570;-46
2022/08/08 04:03:06;;;;;;;7.20;4.15;;;;;;;;;;4844441;29;20502;-44
2022/08/08 04:05:39;;;;;;;12.10;5.60;;;;;;;;;;4828297;29;20045;-45
2022/08/08 04:08:22;;;;;;;2.80;1.20;;;;;;;;;;4843318;29;20065;-44
2022/08/08 04:11:05;;;;;;;1.73;0.73;;;;;;;;;;4843619;29;20046;-44
2022/08/08 04:13:44;;;;;;;7.07;0.60;;;;;;;;;;4843631;29;20057;-45
2022/08/08 04:16:33;;;;;;;1.48;0.50;;;;;;;;;;4843438;29;20049;-44
2022/08/08 04:19:09;;;;;;;0.57;0.50;;;;;;;;;;4843417;29;20077;-45
2022/08/08 04:21:54;;;;;;;1.40;0.50;;;;;;;;;;4843434;29;20418;-44
2022/08/08 04:24:23;;;;;;;1.75;0.50;;;;;;;;;;4839849;29;20055;-44
2022/08/08 04:26:59;;;;;;;1.67;0.43;;;;;;;;;;4840580;29;20574;-44
2022/08/08 04:29:29;;;;;;;3.80;0.50;;;;;;;;;;4826110;29;20051;-47
2022/08/08 04:32:07;;;;;;;1.52;0.60;;;;;;;;;;4826038;29;20453;-43
2022/08/08 04:34:38;;;;;;;29.48;15.13;;;;;;;;;;4825770;29;20050;-43
2022/08/08 04:37:27;;;;;;;6.32;2.78;;;;;;;;;;4824560;29;20507;-44
2022/08/08 04:40:04;;;;;;;1.20;0.60;;;;;;;;;;4840066;29;20121;-44
2022/08/08 04:42:51;;;;;;;1.83;0.70;;;;;;;;;;4825921;29;20054;-45
2022/08/08 04:45:43;;;;;;;1.23;0.70;;;;;;;;;;4824654;29;20050;-45
2022/08/08 04:48:13;;;;;;;0.82;0.50;;;;;;;;;;4821413;29;20286;-45
2022/08/08 04:50:41;;;;;;;1.88;0.60;;;;;;;;;;4807846;29;20480;-45
2022/08/08 04:53:19;;;;;;;1.20;0.68;;;;;;;;;;4821509;29;20412;-44
2022/08/08 04:56:07;;;;;;;3.42;0.73;;;;;;;;;;4807024;29;20046;-44
2022/08/08 04:58:35;;;;;;;0.90;0.60;;;;;;;;;;4807912;29;20077;-46
2022/08/08 05:01:05;;;;;;;1.83;0.60;;;;;;;;;;4806564;29;20085;-46
2022/08/08 05:03:40;;;;;;;1.33;0.70;;;;;;;;;;4807654;29;20158;-44
2022/08/08 05:06:32;;;;;;;1.25;0.65;;;;;;;;;;4821222;29;20448;-47
2022/08/08 05:09:03;;;;;;;84.82;41.58;;;;;;;;;;4807722;29;20104;-44
2022/08/08 05:11:37;;;;;;;3.15;1.50;;;;;;;;;;4791926;29;20507;-44
2022/08/08 05:14:12;;;;;;;3.65;0.70;;;;;;;;;;4820659;29;20050;-47
2022/08/08 05:16:47;;;;;;;3.40;0.88;;;;;;;;;;4821254;29;20047;-44
2022/08/08 05:19:27;;;;;;;1.67;0.77;;;;;;;;;;4820895;29;20142;-46
2022/08/08 05:22:17;;;;;;;2.28;0.80;;;;;;;;;;4821548;29;20050;-44
2022/08/08 05:24:48;;;;;;;2.65;0.90;;;;;;;;;;4823748;29;20054;-45
2022/08/08 05:27:21;;;;;;;3.97;0.95;;;;;;;;;;4823913;29;20057;-47
2022/08/08 05:29:51;;;;;;;1.70;0.80;;;;;;;;;;4809185;29;20046;-47
2022/08/08 05:32:27;;;;;;;3.10;0.80;;;;;;;;;;4808585;29;20057;-45
2022/08/08 05:35:02;;;;;;;14.25;7.45;;;;;;;;;;4824076;29;20119;-45
2022/08/08 05:37:40;;;;;;;5.38;2.90;;;;;;;;;;4825159;29;20113;-44
2022/08/08 05:40:29;;;;;;;1.70;0.57;;;;;;;;;;4823950;29;20106;-46
2022/08/08 05:43:06;;;;;;;2.72;0.60;;;;;;;;;;4824012;29;20054;-44
2022/08/08 05:46:00;;;;;;;1.38;0.77;;;;;;;;;;4825051;29;20051;-43
2022/08/08 05:48:33;;;;;;;3.55;0.80;;;;;;;;;;4829267;29;20042;-44
2022/08/08 05:51:08;;;;;;;1.95;0.80;;;;;;;;;;4841716;29;20153;-44
2022/08/08 05:53:45;;;;;;;2.88;0.77;;;;;;;;;;4843036;29;20459;-44
2022/08/08 05:56:38;;;;;;;1.17;0.55;;;;;;;;;;4843411;29;20087;-47
2022/08/08 05:59:23;;;;;;;1.52;0.60;;;;;;;;;;4843184;29;20050;-44
2022/08/08 06:05:16;;;;;;;1.77;0.80;;;;;;;;;;4824756;29;20178;-45
2022/08/08 06:08:08;;;;;;;1.70;0.77;;;;;;;;;;4823426;29;20042;-45
2022/08/08 06:11:00;;;;;;;2.00;0.60;;;;;;;;;;4823464;29;20081;-47
2022/08/08 06:13:30;;;;;;;2.00;0.60;;;;;;;;;;4823713;29;20057;-45
2022/08/08 06:16:15;;;;;;;1.95;0.70;;;;;;;;;;4823169;29;20050;-46
2022/08/08 06:19:05;;;;;;;1.67;0.80;;;;;;;;;;4823293;29;20090;-45
2022/08/08 06:21:37;;;;;;;2.03;0.50;;;;;;;;;;4823697;29;20046;-49
2022/08/08 06:24:23;;;;;;;2.80;0.82;;;;;;;;;;4822424;29;20054;-46
2022/08/08 06:27:04;;;;;;;2.50;0.85;;;;;;;;;;4823380;29;20518;-46
2022/08/08 06:29:38;;;;;;;1.30;0.63;;;;;;;;;;4823479;29;20116;-44
2022/08/08 06:32:30;;;;;;;1.33;0.50;;;;;;;;;;4824019;29;20046;-45
2022/08/08 06:35:08;;;;;;;11.98;4.45;;;;;;;;;;4822989;29;20449;-46
2022/08/08 06:38:04;;;;;;;3.58;1.20;;;;;;;;;;4822813;29;20201;-45
2022/08/08 06:40:42;;;;;;;1.50;0.63;;;;;;;;;;4807601;29;20043;-45
2022/08/08 06:43:25;;;;;;;1.52;0.57;;;;;;;;;;4822860;29;20054;-42
2022/08/08 06:46:19;;;;;;;1.65;0.65;;;;;;;;;;4807700;29;20087;-45
2022/08/08 06:48:52;;;;;;;1.63;0.60;;;;;;;;;;4830535;29;20144;-46
2022/08/08 06:51:21;;;;;;;3.05;0.65;;;;;;;;;;4842018;29;20038;-44
2022/08/08 06:53:52;;;;;;;1.73;0.85;;;;;;;;;;4825611;29;20042;-50
2022/08/08 06:56:34;;;;;;;1.38;0.50;;;;;;;;;;4840606;29;20050;-44
2022/08/08 06:59:04;;;;;;;1.73;0.77;;;;;;;;;;4825495;29;20042;-45
2022/08/08 07:01:50;;;;;;;1.02;0.63;;;;;;;;;;4825771;29;20046;-45
2022/08/08 07:04:38;;;;;;;11.48;6.15;;;;;;;;;;4840680;29;20038;-43
2022/08/08 07:07:32;;;;;;;8.93;4.55;;;;;;;;;;4840754;29;20145;-44
2022/08/08 07:10:09;;;;;;;1.27;0.60;;;;;;;;;;4841951;29;20133;-44
2022/08/08 07:12:44;;;;;;;2.75;0.63;;;;;;;;;;4841571;29;20463;-46
2022/08/08 07:15:55;;;;;;;1.10;0.52;;;;;;;;;;4840591;29;20038;-44
2022/08/08 07:18:57;;;;;;;1.33;0.50;;;;;;;;;;4841702;29;20065;-47
2022/08/08 07:21:33;;;;;;;1.70;0.60;;;;;;;;;;4840446;29;20088;-45
2022/08/08 07:24:13;;;;;;;2.35;0.70;;;;;;;;;;4841921;29;20057;-45
2022/08/08 07:26:52;;;;;;;1.50;0.57;;;;;;;;;;4841420;29;20396;-46
2022/08/08 07:29:22;;;;;;;1.02;0.68;;;;;;;;;;4825716;29;20088;-45
2022/08/08 07:32:11;;;;;;;1.35;0.50;;;;;;;;;;4840452;29;20050;-46
2022/08/08 07:34:48;;;;;;;5.13;2.22;;;;;;;;;;4841293;29;20058;-45
2022/08/08 07:37:35;;;;;;;1.73;0.75;;;;;;;;;;4840475;29;20046;-49
2022/08/08 07:40:33;;;;;;;0.90;0.60;;;;;;;;;;4840455;29;20128;-45
2022/08/08 07:43:06;;;;;;;1.38;0.57;;;;;;;;;;4839981;29;20053;-46
2022/08/08 07:45:43;;;;;;;1.63;0.75;;;;;;;;;;4840315;29;20471;-45
2022/08/08 07:48:33;;;;;;;0.95;0.50;;;;;;;;;;4819859;29;20142;-46
2022/08/08 07:51:03;;;;;;;0.90;0.50;;;;;;;;;;4822361;29;20399;-45
2022/08/08 07:54:19;;;;;;;4.07;0.70;;;;;;;;;;4821863;29;20160;-46
2022/08/08 07:57:06;;;;;;;1.70;0.57;;;;;;;;;;4821748;29;20053;-49
2022/08/08 07:59:57;;;;;;;1.58;0.60;;;;;;;;;;4823226;29;20085;-44
2022/08/08 08:02:38;;;;;;;2.30;0.80;;;;;;;;;;4821834;29;20062;-45
2022/08/08 08:05:20;;;;;;;1.65;0.68;;;;;;;;;;4821600;29;20099;-46
2022/08/08 08:07:57;;;;;;;1.38;0.52;;;;;;;;;;4821722;29;20061;-45
2022/08/08 08:10:32;;;;;;;1.65;0.43;;;;;;;;;;4822073;29;20051;-49
2022/08/08 08:13:37;;;;;;;1.80;0.60;;;;;;;;;;4822832;29;20068;-44
2022/08/08 08:16:29;;;;;;;1.38;0.70;;;;;;;;;;4817196;29;20062;-50
2022/08/08 08:19:03;;;;;;;4.00;0.73;;;;;;;;;;4822811;29;20408;-49
2022/08/08 08:21:47;;;;;;;3.90;1.30;;;;;;;;;;4821211;29;20533;-44
2022/08/08 08:24:30;;;;;;;2.67;0.52;;;;;;;;;;4823045;29;20064;-45
2022/08/08 08:27:04;;;;;;;1.05;0.60;;;;;;;;;;4806483;29;20046;-45
2022/08/08 08:29:39;;;;;;;3.45;0.40;;;;;;;;;;4821636;29;20046;-45
2022/08/08 08:32:10;;;;;;;1.30;0.55;;;;;;;;;;4821267;29;20047;-44
2022/08/08 08:34:40;;;;;;;1.75;0.52;;;;;;;;;;4821521;29;20070;-46
2022/08/08 08:37:10;;;;;;;0.93;0.40;;;;;;;;;;4821569;29;20530;-46
2022/08/08 08:39:43;;;;;;;1.70;0.90;;;;;;;;;;4821503;29;20058;-47
2022/08/08 08:42:35;;;;;;;2.30;1.00;;;;;;;;;;4821552;29;20054;-45
2022/08/08 08:45:09;;;;;;;1.55;0.45;;;;;;;;;;4822283;29;20050;-45
2022/08/08 08:47:54;;;;;;;1.40;0.52;;;;;;;;;;4821791;29;20047;-45
2022/08/08 08:50:32;;;;;;;0.95;0.40;;;;;;;;;;4843091;29;20046;-46
2022/08/08 08:53:08;;;;;;;1.60;0.75;;;;;;;;;;4843762;29;20102;-45
2022/08/08 08:56:06;;;;;;;1.20;0.45;;;;;;;;;;4842510;29;20046;-46
2022/08/08 08:58:47;;;;;;;0.80;0.40;;;;;;;;;;4842559;29;20145;-45
2022/08/08 09:01:40;;;;;;;0.82;0.50;;;;;;;;;;4842959;29;20866;-46
2022/08/08 09:04:24;;;;;;;0.93;0.50;;;;;;;;;;4827270;29;20057;-46
2022/08/08 09:07:15;;;;;;;2.33;0.65;;;;;;;;;;4827340;29;20099;-46
2022/08/08 09:09:49;;;;;;;3.10;0.88;;;;;;;;;;4833255;29;20046;-46
2022/08/08 09:12:32;;;;;;;5.45;1.10;;;;;;;;;;4824334;29;20055;-47
2022/08/08 09:15:02;;;;;;;1.85;0.50;;;;;;;;;;4824479;29;20530;-47
2022/08/08 09:17:38;;;;;;;1.05;0.60;;;;;;;;;;4825505;29;20241;-45
2022/08/08 09:20:20;;;;;;;3.47;0.60;;;;;;;;;;4824277;29;20565;-48
2022/08/08 09:23:08;;;;;;;0.93;0.40;;;;;;;;;;4809260;29;20142;-50
2022/08/08 09:25:48;;;;;;;1.27;0.50;;;;;;;;;;4808848;29;20050;-46
2022/08/08 09:28:39;;;;;;;3.08;0.50;;;;;;;;;;4809148;29;20125;-46
2022/08/08 09:31:15;;;;;;;0.95;0.47;;;;;;;;;;4823933;29;20046;-46
2022/08/08 09:33:51;;;;;;;2.95;0.70;;;;;;;;;;4823968;29;20119;-43
2022/08/08 09:36:42;;;;;;;1.33;0.60;;;;;;;;;;4823702;29;20159;-46
2022/08/08 09:39:45;;;;;;;1.10;0.50;;;;;;;;;;4824070;29;20499;-46
2022/08/08 09:42:22;;;;;;;3.60;0.70;;;;;;;;;;4824327;29;20055;-47
2022/08/08 09:44:58;;;;;;;0.95;0.50;;;;;;;;;;4825100;29;20503;-46
2022/08/08 09:47:44;;;;;;;1.75;0.70;;;;;;;;;;4825428;29;20054;-45
2022/08/08 09:50:32;;;;;;;1.75;0.55;;;;;;;;;;4806905;29;20079;-45
2022/08/08 09:53:02;;;;;;;0.98;0.50;;;;;;;;;;4806896;29;20051;-45
2022/08/08 09:55:49;;;;;;;1.08;0.43;;;;;;;;;;4806988;29;20207;-45
2022/08/08 09:58:40;;;;;;;0.93;0.30;;;;;;;;;;4806176;29;20825;-46
2022/08/08 10:01:11;;;;;;;1.48;0.47;;;;;;;;;;4806462;29;20099;-46
2022/08/08 10:04:00;;;;;;;1.15;0.35;;;;;;;;;;4806561;29;20047;-48
2022/08/08 10:06:31;;;;;;;1.45;0.60;;;;;;;;;;4815031;29;20407;-48
2022/08/08 10:09:04;;;;;;;2.80;0.50;;;;;;;;;;4824820;29;20461;-49
2022/08/08 10:11:36;;;;;;;1.25;0.57;;;;;;;;;;4824901;29;20503;-47
2022/08/08 10:14:35;;;;;;;2.10;0.52;;;;;;;;;;4824375;29;20751;-46
2022/08/08 10:17:07;;;;;;;4.15;0.50;;;;;;;;;;4824709;29;20566;-47
2022/08/08 10:19:59;;;;;;;1.92;0.30;;;;;;;;;;4824518;29;20042;-48
2022/08/08 10:22:28;;;;;;;4.03;0.50;;;;;;;;;;4824341;29;20107;-46
2022/08/08 10:25:02;;;;;;;0.82;0.50;;;;;;;;;;4824204;29;20050;-47
2022/08/08 10:27:42;;;;;;;0.40;0.30;;;;;;;;;;4824675;29;20051;-45
2022/08/08 10:30:10;;;;;;;0.75;0.30;;;;;;;;;;4824103;29;20541;-46
2022/08/08 10:32:58;;;;;;;2.50;0.40;;;;;;;;;;4823973;29;20058;-45
2022/08/08 10:35:30;;;;;;;1.25;0.40;;;;;;;;;;4824351;29;20050;-45
2022/08/08 10:38:19;;;;;;;1.10;0.38;;;;;;;;;;4824212;29;20407;-47
2022/08/08 10:40:51;;;;;;;0.73;0.30;;;;;;;;;;4824212;29;20043;-48
2022/08/08 10:43:22;;;;;;;0.68;0.40;;;;;;;;;;4824107;29;20047;-47
2022/08/08 10:45:57;;;;;;;0.98;0.30;;;;;;;;;;4824201;29;20046;-46
2022/08/08 10:48:36;;;;;;;0.50;0.30;;;;;;;;;;4828934;29;20052;-47
2022/08/08 10:51:25;;;;;;;0.77;0.30;;;;;;;;;;4842091;29;20056;-49
2022/08/08 10:53:57;;;;;;;0.63;0.40;;;;;;;;;;4842089;29;20455;-47
2022/08/08 10:56:34;;;;;;;0.63;0.47;;;;;;;;;;4842143;29;20418;-46
2022/08/08 10:59:09;;;;;;;1.63;0.32;;;;;;;;;;4841811;29;20041;-46
2022/08/08 11:01:45;;;;;;;1.50;0.50;;;;;;;;;;4841841;29;20615;-47
2022/08/08 11:04:21;;;;;;;0.90;0.50;;;;;;;;;;4841708;29;20050;-45
2022/08/08 11:06:59;;;;;;;3.45;0.45;;;;;;;;;;4842129;29;20046;-45
2022/08/08 11:09:28;;;;;;;0.65;0.40;;;;;;;;;;4829857;29;20093;-47
2022/08/08 11:11:58;;;;;;;1.00;0.40;;;;;;;;;;4807477;29;20099;-50
2022/08/08 11:14:56;;;;;;;1.23;0.50;;;;;;;;;;4823747;29;20099;-50
2022/08/08 11:17:25;;;;;;;1.67;0.60;;;;;;;;;;4823538;29;20046;-49
2022/08/08 11:20:25;;;;;;;3.17;0.50;;;;;;;;;;4823508;29;20108;-48
2022/08/08 11:22:57;;;;;;;0.63;0.40;;;;;;;;;;4823269;29;20059;-47
2022/08/08 11:25:31;;;;;;;513.08;150.98;;;;;;;;;;4823452;29;20137;-47
2022/08/08 11:28:25;;;;;;;8.05;2.95;;;;;;;;;;4823577;29;20129;-47
2022/08/08 11:30:59;;;;;;;28.10;9.18;;;;;;;;;;4823036;29;20526;-48
2022/08/08 11:33:34;;;;;;;1.38;0.52;;;;;;;;;;4823101;29;20061;-46
2022/08/08 11:36:22;;;;;;;1.83;0.82;;;;;;;;;;4823320;29;20057;-47
2022/08/08 11:38:56;;;;;;;0.50;0.38;;;;;;;;;;4823563;29;20043;-50
2022/08/08 11:41:24;;;;;;;0.60;0.40;;;;;;;;;;4823216;29;20050;-47
2022/08/08 11:43:59;;;;;;;1.33;0.43;;;;;;;;;;4823130;29;20384;-47
2022/08/08 11:46:27;;;;;;;1.00;0.40;;;;;;;;;;4823263;29;20432;-49
2022/08/08 11:49:01;;;;;;;21.88;12.30;;;;;;;;;;4831471;29;20079;-46
2022/08/08 11:51:31;;;;;;;;;;;;;;;;;;4842098;29;20498;-46
2022/08/08 11:54:07;;;;;;;1.80;0.80;;;;;;;;;;4841284;29;19928;-46
2022/08/08 11:56:55;;;;;;;1.80;0.57;;;;;;;;;;4841336;29;20790;-46
2022/08/08 11:59:32;;;;;;;1.85;0.60;;;;;;;;;;4841098;29;20172;-45
2022/08/08 12:02:21;;;;;;;0.80;0.45;;;;;;;;;;4841400;29;20042;-47
2022/08/08 12:05:10;;;;;;;1.92;0.60;;;;;;;;;;4841369;29;20042;-46
2022/08/08 12:07:51;;;;;;;1.38;0.57;;;;;;;;;;4841230;29;20054;-48
2022/08/08 12:10:23;;;;;;;1.05;0.55;;;;;;;;;;4841174;29;20050;-47
2022/08/08 12:13:06;;;;;;;1.17;0.52;;;;;;;;;;4840996;29;20052;-44
2022/08/08 12:15:38;;;;;;;4.55;0.82;;;;;;;;;;4840911;29;20144;-46
2022/08/08 12:18:25;;;;;;;1.27;0.50;;;;;;;;;;4840986;29;20094;-51
2022/08/08 12:20:56;;;;;;;2.65;0.90;;;;;;;;;;4841013;29;20586;-46
2022/08/08 12:23:30;;;;;;;0.82;0.55;;;;;;;;;;4843079;29;20061;-44
2022/08/08 12:26:20;;;;;;;1.80;0.80;;;;;;;;;;4844754;29;20046;-44
2022/08/08 12:29:18;;;;;;;2.78;0.90;;;;;;;;;;4844852;29;20053;-46
2022/08/08 12:32:08;;;;;;;3.08;1.33;;;;;;;;;;4844642;29;20061;-45
2022/08/08 12:34:57;;;;;;;2.17;1.10;;;;;;;;;;4844833;29;20061;-46
2022/08/08 12:37:45;;;;;;;1.58;0.88;;;;;;;;;;4844742;29;20130;-44
2022/08/08 12:40:40;;;;;;;2.78;1.08;;;;;;;;;;4844588;29;20498;-45
2022/08/08 12:43:31;;;;;;;2.70;1.00;;;;;;;;;;4844505;29;20406;-45
2022/08/08 12:46:22;;;;;;;3.95;1.48;;;;;;;;;;4844349;29;20060;-46
2022/08/08 12:48:57;;;;;;;2.25;0.85;;;;;;;;;;4836474;29;20125;-47
2022/08/08 12:51:49;;;;;;;2.37;0.80;;;;;;;;;;4825792;29;20460;-44
2022/08/08 12:54:32;;;;;;;1.73;1.00;;;;;;;;;;4825692;29;20054;-44
2022/08/08 12:57:32;;;;;;;3.45;1.20;;;;;;;;;;4825888;29;20054;-46
2022/08/08 13:00:26;;;;;;;2.67;1.13;;;;;;;;;;4810081;29;20050;-45
2022/08/08 13:03:00;;;;;;;3.00;1.38;;;;;;;;;;4825554;29;20047;-45
2022/08/08 13:05:28;;;;;;;2.28;0.98;;;;;;;;;;4825839;29;20049;-44
2022/08/08 13:08:16;;;;;;;6.25;0.95;;;;;;;;;;4825702;29;20049;-48
2022/08/08 13:11:03;;;;;;;1.83;1.00;;;;;;;;;;4825547;29;20537;-45
2022/08/08 13:13:33;;;;;;;2.45;1.17;;;;;;;;;;4825572;29;20058;-45
2022/08/08 13:16:20;;;;;;;2.10;0.90;;;;;;;;;;4825723;29;20396;-49
2022/08/08 13:18:57;;;;;;;2.83;0.98;;;;;;;;;;4825607;29;20093;-51
2022/08/08 13:21:44;;;;;;;1.92;0.80;;;;;;;;;;4825465;29;20046;-45
2022/08/08 13:24:34;;;;;;;1.70;0.90;;;;;;;;;;4825269;29;20050;-45
2022/08/08 13:27:15;;;;;;;;;;;;;;;;;;4825935;29;20046;-44
2022/08/08 13:29:53;;;;;;;3.00;1.50;;;;;;;;;;4825182;29;20437;-44
2022/08/08 13:32:23;;;;;;;3.45;1.15;;;;;;;;;;4825038;29;20066;-45
2022/08/08 13:34:54;;;;;;;2.20;1.00;;;;;;;;;;4824901;29;20058;-44
2022/08/08 13:37:24;;;;;;;2.95;1.17;;;;;;;;;;4825284;29;20099;-46
2022/08/08 13:40:12;;;;;;;1.80;1.20;;;;;;;;;;4825177;29;20632;-44
2022/08/08 13:42:54;;;;;;;3.65;1.15;;;;;;;;;;4825006;29;20050;-45
2022/08/08 13:45:22;;;;;;;2.03;1.15;;;;;;;;;;4825079;29;20094;-48
2022/08/08 13:48:01;;;;;;;2.55;0.90;;;;;;;;;;4824917;29;20046;-45
2022/08/08 13:50:34;;;;;;;2.50;1.25;;;;;;;;;;4843352;29;20424;-45
2022/08/08 13:53:27;;;;;;;1.88;1.08;;;;;;;;;;4842920;29;20134;-46
2022/08/08 13:56:05;;;;;;;;;;;;;;;;;;4843802;29;20093;-47
2022/08/08 13:58:50;;;;;;;2.13;1.30;;;;;;;;;;4843061;29;20019;-49
2022/08/08 14:01:29;;;;;;;5.95;2.90;;;;;;;;;;4842847;29;20065;-45
2022/08/08 14:04:21;;;;;;;2.87;1.33;;;;;;;;;;4842946;29;20067;-46
2022/08/08 14:06:59;;;;;;;3.05;0.90;;;;;;;;;;4843112;29;20054;-45
2022/08/08 14:09:45;;;;;;;2.88;0.95;;;;;;;;;;4838342;29;20399;-47
2022/08/08 14:12:35;;;;;;;1.02;0.70;;;;;;;;;;4824684;29;20133;-48
2022/08/08 14:15:06;;;;;;;7.43;4.72;;;;;;;;;;4824656;29;20042;-45
2022/08/08 14:17:36;;;;;;;1.77;0.90;;;;;;;;;;4824547;29;20054;-45
2022/08/08 14:20:38;;;;;;;3.47;1.23;;;;;;;;;;4824321;29;20042;-45
2022/08/08 14:23:24;;;;;;;1.77;0.90;;;;;;;;;;4823118;29;20059;-45
2022/08/08 14:26:25;;;;;;;4.55;1.20;;;;;;;;;;4824491;29;20079;-46
2022/08/08 14:28:57;;;;;;;3.50;1.20;;;;;;;;;;4824393;29;20043;-44
2022/08/08 14:31:27;;;;;;;2.75;0.93;;;;;;;;;;4824296;29;20046;-49
2022/08/08 14:34:14;;;;;;;6.65;1.20;;;;;;;;;;4823024;29;20514;-45
2022/08/08 14:36:50;;;;;;;1.80;1.20;;;;;;;;;;4823999;29;20478;-45
2022/08/08 14:39:20;;;;;;;7.55;3.63;;;;;;;;;;4824537;29;20038;-46
2022/08/08 14:42:02;;;;;;;1.83;1.02;;;;;;;;;;4824031;29;20097;-46
2022/08/08 14:44:33;;;;;;;1.98;1.00;;;;;;;;;;4824017;29;20049;-46
2022/08/08 14:47:08;;;;;;;1.95;0.82;;;;;;;;;;4823895;29;20130;-44
2022/08/08 14:49:48;;;;;;;1.58;0.85;;;;;;;;;;4824370;29;20042;-43
2022/08/08 14:53:02;;;;;;;3.50;1.15;;;;;;;;;;4824133;29;20042;-44
2022/08/08 14:55:32;;;;;;;2.03;0.90;;;;;;;;;;4823848;29;20050;-44
2022/08/08 14:58:09;;;;;;;22.70;20.40;;;;;;;;;;4823577;29;20081;-46
2022/08/08 15:00:42;;;;;;;4.22;2.75;;;;;;;;;;4824142;29;20054;-48
2022/08/08 15:03:10;;;;;;;1.38;0.98;;;;;;;;;;4823353;29;20053;-45
2022/08/08 15:05:44;;;;;;;2.00;0.80;;;;;;;;;;4822764;29;20050;-44
2022/08/08 15:08:25;;;;;;;2.55;1.00;;;;;;;;;;4821772;29;20058;-44
2022/08/08 15:11:09;;;;;;;2.05;0.70;;;;;;;;;;4822148;29;20062;-47
2022/08/08 15:13:47;;;;;;;2.85;1.08;;;;;;;;;;4821461;29;20054;-45
2022/08/08 15:16:28;;;;;;;1.73;0.60;;;;;;;;;;4821542;29;20095;-45
2022/08/08 15:19:01;;;;;;;2.72;1.00;;;;;;;;;;4822404;29;20050;-45
2022/08/08 15:21:29;;;;;;;2.40;0.85;;;;;;;;;;4822906;29;20099;-47
2022/08/08 15:23:57;;;;;;;1.60;0.90;;;;;;;;;;4822855;29;20457;-44
2022/08/08 15:26:24;;;;;;;2.65;0.93;;;;;;;;;;4823500;29;20072;-47
2022/08/08 15:28:56;;;;;;;47.17;26.75;;;;;;;;;;4823301;29;20050;-47
2022/08/08 15:31:23;;;;;;;8.07;3.45;;;;;;;;;;4823399;29;20074;-45
2022/08/08 15:34:10;;;;;;;2.17;0.98;;;;;;;;;;4823273;29;20050;-45
2022/08/08 15:36:58;;;;;;;1.02;0.55;;;;;;;;;;4823250;29;20051;-46
2022/08/08 15:39:31;;;;;;;1.58;0.70;;;;;;;;;;4823220;29;20415;-48
2022/08/08 15:42:06;;;;;;;3.10;1.02;;;;;;;;;;4823242;29;20121;-46
2022/08/08 15:44:43;;;;;;;2.92;0.70;;;;;;;;;;4823275;29;20074;-48
2022/08/08 15:47:11;;;;;;;1.25;0.50;;;;;;;;;;4823219;29;20072;-44
2022/08/08 15:49:46;;;;;;;2.35;1.00;;;;;;;;;;4837323;29;20445;-46
2022/08/08 15:52:18;;;;;;;6.68;1.60;;;;;;;;;;4841246;29;20132;-46
2022/08/08 15:54:53;;;;;;;20.40;13.27;;;;;;;;;;4841358;29;20053;-58
2022/08/08 15:57:21;;;;;;;8.00;5.18;;;;;;;;;;4837936;29;20060;-43
2022/08/08 15:59:50;;;;;;;13.95;10.05;;;;;;;;;;4823017;29;20098;-46
2022/08/08 16:02:40;;;;;;;2.42;1.65;;;;;;;;;;4820140;29;20042;-49
2022/08/08 16:05:19;;;;;;;2.35;1.20;;;;;;;;;;4822793;29;20062;-48
2022/08/08 16:07:49;;;;;;;1.88;1.00;;;;;;;;;;4823080;29;20089;-46
2022/08/08 16:10:25;;;;;;;2.53;1.70;;;;;;;;;;4822771;29;20122;-49
2022/08/08 16:13:12;;;;;;;3.50;2.10;;;;;;;;;;4822959;29;20095;-43
2022/08/08 16:16:00;;;;;;;2.42;1.50;;;;;;;;;;4822914;29;20053;-45
2022/08/08 16:18:35;;;;;;;2.83;1.40;;;;;;;;;;4823367;29;20074;-43
2022/08/08 16:21:03;;;;;;;2.85;1.00;;;;;;;;;;4823002;29;20392;-46
2022/08/08 16:23:51;;;;;;;2.63;1.00;;;;;;;;;;4822533;29;20062;-47
2022/08/08 16:26:23;;;;;;;3.65;0.90;;;;;;;;;;4822867;29;20046;-46
2022/08/08 16:29:04;;;;;;;2.70;0.90;;;;;;;;;;4822608;29;20049;-45